createdAt,value
2022-12-23T00:01:24.549Z,4.60
2022-12-23T00:03:54.230Z,4.60
2022-12-23T00:06:22.215Z,4.60
2022-12-23T00:08:50.266Z,4.60
2022-12-23T00:11:20.900Z,4.60
2022-12-23T00:14:06.427Z,4.60
2022-12-23T00:16:36.773Z,4.60
2022-12-23T00:19:06.263Z,4.60
2022-12-23T00:21:35.865Z,4.60
2022-12-23T00:24:03.988Z,4.70
2022-12-23T00:26:31.866Z,4.60
2022-12-23T00:29:02.385Z,4.60
2022-12-23T00:31:30.462Z,4.60
2022-12-23T00:33:58.418Z,4.60
2022-12-23T00:36:29.984Z,4.60
2022-12-23T00:39:16.980Z,4.60
2022-12-23T00:42:02.774Z,4.60
2022-12-23T00:44:30.899Z,4.70
2022-12-23T00:46:58.865Z,4.60
2022-12-23T00:49:43.804Z,4.60
2022-12-23T00:52:15.525Z,4.60
2022-12-23T00:54:43.734Z,4.70
2022-12-23T00:57:11.959Z,4.70
2022-12-23T00:59:39.892Z,4.70
2022-12-23T01:02:25.320Z,4.70
2022-12-23T01:05:10.964Z,4.70
2022-12-23T01:07:42.363Z,4.70
2022-12-23T01:10:10.939Z,4.70
2022-12-23T01:12:38.840Z,4.70
2022-12-23T01:15:08.171Z,4.70
2022-12-23T01:17:36.093Z,4.70
2022-12-23T01:20:04.399Z,4.70
2022-12-23T01:22:32.425Z,4.70
2022-12-23T01:25:01.863Z,4.80
2022-12-23T01:27:29.902Z,4.80
2022-12-23T01:29:57.900Z,4.80
2022-12-23T01:32:25.835Z,4.80
2022-12-23T01:34:53.731Z,4.70
2022-12-23T01:37:21.709Z,4.70
2022-12-23T01:39:49.880Z,4.80
2022-12-23T01:42:39.038Z,4.80
2022-12-23T01:45:12.926Z,4.90
2022-12-23T01:47:45.369Z,4.80
2022-12-23T01:50:17.013Z,4.80
2022-12-23T01:52:48.588Z,4.80
2022-12-23T01:55:19.741Z,4.80
2022-12-23T01:57:49.802Z,4.80
2022-12-23T02:00:35.902Z,4.80
2022-12-23T02:03:21.444Z,4.80
2022-12-23T02:05:50.263Z,4.80
2022-12-23T02:08:36.929Z,4.80
2022-12-23T02:11:22.957Z,4.80
2022-12-23T02:14:24.929Z,4.90
2022-12-23T02:17:02.005Z,4.90
2022-12-23T02:19:57.332Z,4.90
2022-12-23T02:22:45.400Z,4.90
2022-12-23T02:25:47.998Z,4.90
2022-12-23T02:28:54.861Z,4.90
2022-12-23T02:31:30.828Z,4.90
2022-12-23T02:34:04.629Z,5.00
2022-12-23T02:36:41.182Z,5.00
2022-12-23T02:39:15.348Z,5.00
2022-12-23T02:41:53.572Z,5.10
2022-12-23T02:44:30.884Z,5.10
2022-12-23T02:47:04.891Z,5.10
2022-12-23T02:49:37.400Z,5.10
2022-12-23T02:52:10.852Z,5.10
2022-12-23T02:54:45.405Z,5.20
2022-12-23T02:57:16.981Z,5.20
2022-12-23T02:59:49.377Z,5.20
2022-12-23T03:02:18.875Z,5.20
2022-12-23T03:04:47.159Z,5.20
2022-12-23T03:07:19.111Z,5.30
2022-12-23T03:09:59.035Z,5.30
2022-12-23T03:12:36.080Z,5.30
2022-12-23T03:15:14.957Z,5.30
2022-12-23T03:17:58.503Z,5.30
2022-12-23T03:20:30.447Z,5.30
2022-12-23T03:23:04.615Z,5.40
2022-12-23T03:25:37.005Z,5.40
2022-12-23T03:28:10.461Z,5.40
2022-12-23T03:30:41.592Z,5.40
2022-12-23T03:33:15.127Z,5.50
2022-12-23T03:35:48.494Z,5.50
2022-12-23T03:38:19.485Z,5.50
2022-12-23T03:40:51.944Z,5.50
2022-12-23T03:43:24.378Z,5.50
2022-12-23T03:45:57.582Z,5.40
2022-12-23T03:48:31.801Z,5.50
2022-12-23T03:51:04.432Z,5.50
2022-12-23T03:53:36.987Z,5.50
2022-12-23T03:56:09.515Z,5.50
2022-12-23T03:58:42.650Z,5.50
2022-12-23T04:01:18.446Z,5.60
2022-12-23T04:03:55.518Z,5.60
2022-12-23T04:06:28.095Z,5.60
2022-12-23T04:08:57.899Z,5.60
2022-12-23T04:11:26.342Z,5.60
2022-12-23T04:13:54.656Z,5.60
2022-12-23T04:16:23.218Z,5.60
2022-12-23T04:18:52.550Z,5.60
2022-12-23T04:21:20.560Z,5.60
2022-12-23T04:23:48.538Z,5.70
2022-12-23T04:26:16.425Z,5.60
2022-12-23T04:28:44.383Z,5.60
2022-12-23T04:31:12.424Z,5.70
2022-12-23T04:33:40.373Z,5.60
2022-12-23T04:36:09.874Z,5.70
2022-12-23T04:38:37.916Z,5.70
2022-12-23T04:41:06.683Z,5.70
2022-12-23T04:43:34.701Z,5.60
2022-12-23T04:46:02.619Z,5.60
2022-12-23T04:48:31.134Z,5.60
2022-12-23T04:51:02.831Z,5.70
2022-12-23T04:53:32.487Z,5.70
2022-12-23T04:56:00.422Z,5.70
2022-12-23T04:58:28.338Z,5.60
2022-12-23T05:01:03.199Z,5.70
2022-12-23T05:03:31.277Z,5.60
2022-12-23T05:05:59.513Z,5.70
2022-12-23T05:08:27.863Z,5.70
2022-12-23T05:10:57.392Z,5.70
2022-12-23T05:13:26.550Z,5.70
2022-12-23T05:15:56.235Z,5.70
2022-12-23T05:18:24.329Z,5.70
2022-12-23T05:20:52.274Z,5.70
2022-12-23T05:23:20.242Z,5.70
2022-12-23T05:25:52.673Z,5.70
2022-12-23T05:28:23.115Z,5.70
2022-12-23T05:30:51.213Z,5.70
2022-12-23T05:33:19.186Z,5.70
2022-12-23T05:35:47.143Z,5.70
2022-12-23T05:38:15.083Z,5.70
2022-12-23T05:40:43.006Z,5.70
2022-12-23T05:43:11.017Z,5.70
2022-12-23T05:45:40.903Z,5.70
2022-12-23T05:48:09.937Z,5.80
2022-12-23T05:50:38.175Z,5.80
2022-12-23T05:53:06.571Z,5.80
2022-12-23T05:55:34.504Z,5.80
2022-12-23T05:58:02.594Z,5.80
2022-12-23T06:00:30.569Z,5.80
2022-12-23T06:03:00.107Z,5.80
2022-12-23T06:05:28.497Z,5.80
2022-12-23T06:07:56.559Z,5.80
2022-12-23T06:10:24.417Z,5.80
2022-12-23T06:12:52.457Z,5.80
2022-12-23T06:15:20.436Z,5.80
2022-12-23T06:17:48.424Z,5.80
2022-12-23T06:20:20.947Z,5.80
2022-12-23T06:22:49.473Z,5.80
2022-12-23T06:25:17.585Z,5.80
2022-12-23T06:27:45.613Z,5.90
2022-12-23T06:30:14.411Z,5.90
2022-12-23T06:32:42.533Z,5.90
2022-12-23T06:35:11.209Z,5.90
2022-12-23T06:37:40.554Z,5.90
2022-12-23T06:40:09.698Z,5.90
2022-12-23T06:42:37.719Z,5.90
2022-12-23T06:45:06.537Z,5.90
2022-12-23T06:47:58.730Z,5.90
2022-12-23T06:50:26.682Z,6.00
2022-12-23T06:52:55.948Z,6.00
2022-12-23T06:55:23.948Z,6.00
2022-12-23T06:57:51.896Z,6.00
2022-12-23T07:00:20.114Z,6.00
2022-12-23T07:02:48.092Z,6.00
2022-12-23T07:05:17.010Z,6.00
2022-12-23T07:07:44.917Z,6.00
2022-12-23T07:10:14.272Z,6.00
2022-12-23T07:12:47.447Z,6.10
2022-12-23T07:15:18.428Z,6.10
2022-12-23T07:17:46.367Z,6.10
2022-12-23T07:20:14.701Z,6.10
2022-12-23T07:22:42.615Z,6.10
2022-12-23T07:25:10.978Z,6.10
2022-12-23T07:27:40.429Z,6.10
2022-12-23T07:30:09.720Z,6.10
2022-12-23T07:32:37.711Z,6.10
2022-12-23T07:35:06.342Z,6.10
2022-12-23T07:37:34.332Z,6.10
2022-12-23T07:40:08.265Z,6.10
2022-12-23T07:42:46.554Z,6.10
2022-12-23T07:45:16.493Z,6.10
2022-12-23T07:47:44.493Z,6.10
2022-12-23T07:50:13.207Z,6.10
2022-12-23T07:52:41.320Z,6.10
2022-12-23T07:55:09.858Z,6.20
2022-12-23T07:57:38.460Z,6.20
2022-12-23T08:00:08.371Z,6.20
2022-12-23T08:02:44.197Z,6.30
2022-12-23T08:05:12.961Z,6.30
2022-12-23T08:07:41.012Z,6.30
2022-12-23T08:10:10.160Z,6.30
2022-12-23T08:12:38.099Z,6.30
2022-12-23T08:15:07.249Z,6.40
2022-12-23T08:17:36.733Z,6.40
2022-12-23T08:20:07.349Z,6.40
2022-12-23T08:22:35.269Z,6.50
2022-12-23T08:25:03.264Z,6.50
2022-12-23T08:27:31.157Z,6.60
2022-12-23T08:29:59.089Z,6.60
2022-12-23T08:32:28.079Z,6.70
2022-12-23T08:34:57.606Z,6.70
2022-12-23T08:37:27.087Z,6.70
2022-12-23T08:39:54.956Z,6.80
2022-12-23T08:42:22.933Z,6.80
2022-12-23T08:44:50.826Z,6.90
2022-12-23T08:47:18.798Z,6.90
2022-12-23T08:49:46.830Z,6.90
2022-12-23T08:52:14.820Z,7.00
2022-12-23T08:54:44.081Z,7.00
2022-12-23T08:57:12.151Z,7.10
2022-12-23T08:59:40.057Z,7.10
2022-12-23T09:02:10.040Z,7.10
2022-12-23T09:04:38.198Z,7.20
2022-12-23T09:07:06.120Z,7.30
2022-12-23T09:09:34.177Z,7.30
2022-12-23T09:12:03.467Z,7.30
2022-12-23T09:14:31.555Z,7.40
2022-12-23T09:16:59.541Z,7.50
2022-12-23T09:19:27.591Z,7.50
2022-12-23T09:21:55.573Z,7.60
2022-12-23T09:24:23.530Z,7.60
2022-12-23T09:26:51.573Z,7.60
2022-12-23T09:29:20.898Z,7.70
2022-12-23T09:31:48.917Z,7.70
2022-12-23T09:34:17.170Z,7.80
2022-12-23T09:36:47.108Z,7.80
2022-12-23T09:39:18.465Z,7.90
2022-12-23T09:42:03.287Z,7.90
2022-12-23T09:44:52.044Z,8.00
2022-12-23T09:47:23.529Z,8.00
2022-12-23T09:49:56.380Z,8.10
2022-12-23T09:52:29.760Z,8.10
2022-12-23T09:54:57.874Z,8.20
2022-12-23T09:57:35.242Z,8.20
2022-12-23T10:00:12.543Z,8.30
2022-12-23T10:02:53.042Z,8.40
2022-12-23T10:05:35.287Z,8.40
2022-12-23T10:08:08.700Z,8.50
2022-12-23T10:10:43.804Z,8.60
2022-12-23T10:13:26.513Z,8.60
2022-12-23T10:15:58.784Z,8.70
2022-12-23T10:18:36.348Z,8.80
2022-12-23T10:21:08.539Z,8.90
2022-12-23T10:23:39.869Z,8.90
2022-12-23T10:26:15.762Z,9.00
2022-12-23T10:28:43.701Z,9.00
2022-12-23T10:34:16.083Z,9.10
2022-12-23T10:36:51.364Z,9.10
2022-12-23T10:39:29.751Z,9.10
2022-12-23T10:42:07.026Z,9.10
2022-12-23T10:44:59.962Z,9.20
2022-12-23T10:47:40.318Z,9.20
2022-12-23T10:50:30.718Z,9.20
2022-12-23T10:53:03.083Z,9.20
2022-12-23T10:55:35.312Z,9.30
2022-12-23T10:58:07.973Z,9.30
2022-12-23T11:00:39.879Z,9.30
2022-12-23T11:03:18.785Z,9.30
2022-12-23T11:05:49.708Z,9.40
2022-12-23T11:08:18.043Z,9.40
2022-12-23T11:10:47.148Z,9.50
2022-12-23T11:13:26.340Z,9.40
2022-12-23T11:15:54.515Z,9.50
2022-12-23T11:18:23.812Z,9.40
2022-12-23T11:21:05.981Z,9.40
2022-12-23T11:23:37.081Z,9.40
2022-12-23T11:26:07.410Z,9.40
2022-12-23T11:28:38.546Z,9.40
2022-12-23T11:31:11.625Z,9.40
2022-12-23T11:33:46.702Z,9.40
2022-12-23T11:36:20.101Z,9.40
2022-12-23T11:38:51.776Z,9.40
2022-12-23T11:41:21.974Z,9.40
2022-12-23T11:43:57.382Z,9.40
2022-12-23T11:46:28.547Z,9.40
2022-12-23T11:49:08.149Z,9.50
2022-12-23T11:51:36.203Z,9.50
2022-12-23T11:54:05.011Z,9.50
2022-12-23T11:59:56.525Z,9.50
2022-12-23T12:02:33.057Z,9.40
2022-12-23T12:05:06.783Z,9.50
2022-12-23T12:07:35.286Z,9.40
2022-12-23T12:10:04.157Z,9.40
2022-12-23T12:12:33.630Z,9.40
2022-12-23T12:15:02.195Z,9.50
2022-12-23T12:17:38.164Z,9.50
2022-12-23T12:20:15.055Z,9.50
2022-12-23T12:22:49.147Z,9.50
2022-12-23T12:25:20.572Z,9.40
2022-12-23T12:27:55.153Z,9.40
2022-12-23T12:30:23.496Z,9.40
2022-12-23T12:32:58.901Z,9.40
2022-12-23T12:35:37.730Z,9.40
2022-12-23T12:38:14.118Z,9.40
2022-12-23T12:40:46.424Z,9.40
2022-12-23T12:43:24.365Z,9.30
2022-12-23T12:46:03.261Z,9.30
2022-12-23T12:48:39.987Z,9.30
2022-12-23T12:51:16.979Z,9.20
2022-12-23T12:54:02.732Z,9.20
2022-12-23T12:56:41.169Z,9.20
2022-12-23T12:59:16.892Z,9.20
2022-12-23T13:01:54.088Z,9.20
2022-12-23T13:05:01.360Z,9.20
2022-12-23T13:07:39.409Z,9.10
2022-12-23T13:10:15.040Z,9.10
2022-12-23T13:12:55.996Z,9.10
2022-12-23T13:15:32.226Z,9.10
2022-12-23T13:18:15.222Z,9.10
2022-12-23T13:20:49.924Z,9.10
2022-12-23T13:23:44.129Z,9.10
2022-12-23T13:26:19.103Z,9.00
2022-12-23T13:28:57.940Z,9.00
2022-12-23T13:31:37.047Z,9.00
2022-12-23T13:34:13.368Z,9.00
2022-12-23T13:36:50.118Z,9.00
2022-12-23T13:39:32.975Z,9.00
2022-12-23T13:42:05.958Z,8.90
2022-12-23T13:44:36.157Z,9.00
2022-12-23T13:47:15.269Z,8.90
2022-12-23T13:49:55.581Z,8.90
2022-12-23T13:52:35.119Z,8.90
2022-12-23T13:55:16.807Z,8.90
2022-12-23T13:57:57.790Z,8.90
2022-12-23T14:00:31.522Z,8.90
2022-12-23T14:03:20.337Z,8.80
2022-12-23T14:05:50.582Z,8.80
2022-12-23T14:08:36.019Z,8.80
2022-12-23T14:11:15.847Z,8.80
2022-12-23T14:13:45.969Z,8.80
2022-12-23T14:16:41.001Z,8.70
2022-12-23T14:19:36.411Z,8.60
2022-12-23T14:22:14.510Z,8.60
2022-12-23T14:25:05.880Z,8.60
2022-12-23T14:28:11.509Z,8.60
2022-12-23T14:30:42.752Z,8.60
2022-12-23T14:33:21.585Z,8.50
2022-12-23T14:36:22.569Z,8.60
2022-12-23T14:39:24.007Z,8.60
2022-12-23T14:41:53.152Z,8.50
2022-12-23T14:44:51.550Z,8.50
2022-12-23T14:47:46.439Z,8.50
2022-12-23T14:50:37.814Z,8.50
2022-12-23T14:53:20.253Z,8.50
2022-12-23T14:55:50.750Z,8.50
2022-12-23T14:58:38.661Z,8.50
2022-12-23T15:01:13.482Z,8.50
2022-12-23T15:03:48.175Z,8.60
2022-12-23T15:06:21.378Z,8.50
2022-12-23T15:08:53.466Z,8.50
2022-12-23T15:11:29.753Z,8.50
2022-12-23T15:14:00.538Z,8.50
2022-12-23T15:16:36.492Z,8.60
2022-12-23T15:19:18.995Z,8.50
2022-12-23T15:21:52.045Z,8.50
2022-12-23T15:24:26.338Z,8.50
2022-12-23T15:27:25.350Z,8.50
2022-12-23T15:29:48.385Z,8.50
2022-12-23T15:32:19.632Z,8.50
2022-12-23T15:34:49.933Z,8.50
2022-12-23T15:37:20.037Z,8.60
2022-12-23T15:39:55.722Z,8.60
2022-12-23T15:42:31.227Z,8.50
2022-12-23T15:44:59.501Z,8.50
2022-12-23T15:47:31.237Z,8.50
2022-12-23T15:50:00.793Z,8.50
2022-12-23T15:52:30.466Z,8.50
2022-12-23T15:55:03.697Z,8.50
2022-12-23T15:57:32.149Z,8.50
2022-12-23T16:00:00.721Z,8.50
2022-12-23T16:05:30.502Z,8.60
2022-12-23T16:08:11.704Z,8.60
2022-12-23T16:10:40.603Z,8.60
2022-12-23T16:13:17.940Z,8.60
2022-12-23T16:15:46.753Z,8.60
2022-12-23T16:18:28.585Z,8.60
2022-12-23T16:20:59.949Z,8.60
2022-12-23T16:23:31.322Z,8.60
2022-12-23T16:26:01.406Z,8.60
2022-12-23T16:28:39.632Z,8.60
2022-12-23T16:31:08.668Z,8.60
2022-12-23T16:33:42.532Z,8.60
2022-12-23T16:36:23.495Z,8.60
2022-12-23T16:38:53.252Z,8.60
2022-12-23T16:41:21.537Z,8.60
2022-12-23T16:43:52.723Z,8.60
2022-12-23T16:46:22.919Z,8.60
2022-12-23T16:48:55.523Z,8.60
2022-12-23T16:51:25.074Z,8.60
2022-12-23T16:53:56.224Z,8.60
2022-12-23T16:56:27.834Z,8.60
2022-12-23T16:58:55.851Z,8.60
2022-12-23T17:01:25.781Z,8.70
2022-12-23T17:03:55.873Z,8.70
2022-12-23T17:06:24.774Z,8.60
2022-12-23T17:08:54.079Z,8.70
2022-12-23T17:11:26.407Z,8.60
2022-12-23T17:13:57.989Z,8.60
2022-12-23T17:16:29.617Z,8.60
2022-12-23T17:18:59.081Z,8.60
2022-12-23T17:21:30.308Z,8.60
2022-12-23T17:24:04.305Z,8.60
2022-12-23T17:26:32.259Z,8.60
2022-12-23T17:29:00.206Z,8.60
2022-12-23T17:31:31.378Z,8.60
2022-12-23T17:34:00.940Z,8.60
2022-12-23T17:36:30.440Z,8.60
2022-12-23T17:38:58.428Z,8.70
2022-12-23T17:41:29.282Z,8.60
2022-12-23T17:43:57.913Z,8.70
2022-12-23T17:46:26.128Z,8.60
2022-12-23T17:48:54.450Z,8.70
2022-12-23T17:51:24.373Z,8.80
2022-12-23T17:53:57.652Z,8.90
2022-12-23T17:56:28.182Z,9.00
2022-12-23T17:58:56.174Z,9.00
2022-12-23T18:01:26.709Z,9.10
2022-12-23T18:03:55.659Z,9.20
2022-12-23T18:06:27.155Z,9.20
2022-12-23T18:08:56.984Z,9.20
2022-12-23T18:11:31.852Z,9.30
2022-12-23T18:14:00.337Z,9.30
2022-12-23T18:16:28.414Z,9.30
2022-12-23T18:18:57.091Z,9.30
2022-12-23T18:21:52.298Z,9.30
2022-12-23T18:24:20.368Z,9.40
2022-12-23T18:26:48.766Z,9.40
2022-12-23T18:29:16.685Z,9.50
2022-12-23T18:31:51.391Z,9.60
2022-12-23T18:34:21.067Z,9.70
2022-12-23T18:36:52.469Z,9.80
2022-12-23T18:39:21.001Z,9.90
2022-12-23T18:41:49.056Z,10.00
2022-12-23T18:44:19.652Z,10.00
2022-12-23T18:46:48.287Z,10.20
2022-12-23T18:49:16.525Z,10.20
2022-12-23T18:51:44.615Z,10.30
2022-12-23T18:54:16.684Z,10.40
2022-12-23T18:56:45.167Z,10.50
2022-12-23T18:59:20.107Z,10.60
2022-12-23T19:01:51.411Z,10.70
2022-12-23T19:04:19.748Z,10.80
2022-12-23T19:06:47.716Z,10.90
2022-12-23T19:09:21.425Z,10.90
2022-12-23T19:11:54.169Z,11.00
2022-12-23T19:14:22.420Z,11.20
2022-12-23T19:16:52.338Z,11.30
2022-12-23T19:19:20.930Z,11.30
2022-12-23T19:21:48.885Z,11.40
2022-12-23T19:24:16.880Z,11.40
2022-12-23T19:26:46.264Z,11.50
2022-12-23T19:29:14.284Z,11.50
2022-12-23T19:31:42.491Z,11.50
2022-12-23T19:34:15.031Z,11.50
2022-12-23T19:36:43.744Z,11.50
2022-12-23T19:39:15.979Z,11.50
2022-12-23T19:41:44.337Z,11.50
2022-12-23T19:44:13.723Z,11.60
2022-12-23T19:46:41.768Z,11.60
2022-12-23T19:49:14.019Z,11.60
2022-12-23T19:51:45.720Z,11.70
2022-12-23T19:54:13.657Z,11.80
2022-12-23T19:56:42.038Z,11.80
2022-12-23T19:59:10.012Z,11.80
2022-12-23T20:01:39.512Z,11.80
2022-12-23T20:04:07.712Z,11.80
2022-12-23T20:06:38.187Z,11.80
2022-12-23T20:09:07.762Z,11.80
2022-12-23T20:11:37.871Z,11.80
2022-12-23T20:14:07.669Z,11.80
2022-12-23T20:16:36.576Z,11.80
2022-12-23T20:19:06.411Z,11.80
2022-12-23T20:21:35.430Z,11.80
2022-12-23T20:24:03.372Z,11.80
2022-12-23T20:26:31.554Z,11.80
2022-12-23T20:28:59.918Z,11.80
2022-12-23T20:31:29.325Z,11.80
2022-12-23T20:33:58.246Z,11.80
2022-12-23T20:36:30.280Z,11.90
2022-12-23T20:38:58.612Z,11.80
2022-12-23T20:41:29.577Z,11.90
2022-12-23T20:44:32.401Z,12.00
2022-12-23T20:46:46.086Z,12.00
2022-12-23T20:49:14.205Z,12.00
2022-12-23T20:51:43.523Z,12.10
2022-12-23T20:54:11.447Z,12.10
2022-12-23T20:56:39.387Z,12.10
2022-12-23T20:59:07.330Z,12.20
2022-12-23T21:01:37.870Z,12.20
2022-12-23T21:04:08.026Z,12.20
2022-12-23T21:06:36.859Z,12.20
2022-12-23T21:09:08.709Z,12.20
2022-12-23T21:11:39.972Z,12.20
2022-12-23T21:14:08.451Z,12.10
2022-12-23T21:16:37.649Z,12.20
2022-12-23T21:19:06.506Z,12.10
2022-12-23T21:21:35.077Z,12.00
2022-12-23T21:24:05.022Z,12.00
2022-12-23T21:26:35.742Z,11.90
2022-12-23T21:29:06.238Z,11.80
2022-12-23T21:31:36.258Z,11.70
2022-12-23T21:34:05.009Z,11.70
2022-12-23T21:36:34.660Z,11.60
2022-12-23T21:39:03.155Z,11.60
2022-12-23T21:41:35.854Z,11.50
2022-12-23T21:44:04.242Z,11.50
2022-12-23T21:46:32.601Z,11.40
2022-12-23T21:49:02.155Z,11.30
2022-12-23T21:51:38.933Z,11.30
2022-12-23T21:54:08.472Z,11.20
2022-12-23T21:56:37.871Z,11.20
2022-12-23T21:59:07.945Z,11.20
2022-12-23T22:01:36.262Z,11.10
2022-12-23T22:04:04.345Z,11.10
2022-12-23T22:06:34.181Z,11.10
2022-12-23T22:09:02.161Z,11.10
2022-12-23T22:11:32.379Z,11.10
2022-12-23T22:14:02.729Z,11.00
2022-12-23T22:16:35.128Z,11.00
2022-12-23T22:19:05.608Z,11.10
2022-12-23T22:21:34.690Z,11.10
2022-12-23T22:24:03.851Z,11.00
2022-12-23T22:26:33.963Z,11.00
2022-12-23T22:29:06.693Z,11.00
2022-12-23T22:31:39.692Z,11.10
2022-12-23T22:34:13.482Z,11.10
2022-12-23T22:36:41.604Z,11.10
2022-12-23T22:39:14.151Z,11.10
2022-12-23T22:41:45.686Z,11.10
2022-12-23T22:44:15.096Z,11.00
2022-12-23T22:46:43.346Z,11.00
2022-12-23T22:49:13.269Z,10.90
2022-12-23T22:51:42.391Z,11.00
2022-12-23T22:54:11.253Z,10.90
2022-12-23T22:56:39.209Z,10.90
2022-12-23T22:59:07.351Z,10.90
2022-12-23T23:01:38.588Z,10.90
2022-12-23T23:04:11.654Z,10.90
2022-12-23T23:06:39.957Z,10.90
2022-12-23T23:09:09.232Z,10.90
2022-12-23T23:11:37.600Z,11.00
2022-12-23T23:14:05.618Z,10.90
2022-12-23T23:16:34.106Z,10.90
2022-12-23T23:19:04.031Z,11.00
2022-12-23T23:21:32.399Z,11.00
2022-12-23T23:24:00.311Z,11.00
2022-12-23T23:26:28.911Z,11.00
2022-12-23T23:28:57.695Z,11.00
2022-12-23T23:31:43.209Z,11.00
2022-12-23T23:34:13.008Z,11.10
2022-12-23T23:36:41.078Z,11.10
2022-12-23T23:39:09.142Z,11.10
2022-12-23T23:41:40.927Z,11.10
2022-12-23T23:44:08.876Z,11.10
2022-12-23T23:46:37.031Z,11.10
2022-12-23T23:49:05.171Z,11.10
2022-12-23T23:51:34.526Z,11.10
2022-12-23T23:54:02.585Z,11.10
2022-12-23T23:56:37.616Z,11.10
2022-12-23T23:59:06.650Z,11.10
